Time;durP1;ratioP1;P1;durP2;ratioP2;P2;SDS_P1;SDS_P2;PMS_P1;PMS_P2;Temp;Humidity;BMP_temperature;BMP_pressure;BME280_temperature;BME280_humidity;BME280_pressure;Samples;Min_cycle;Max_cycle;Signal;HPM_P1;HPM_P2
2022/07/06 00:01:19;;;;;;;7.53;6.72;;;;;;;16.00;100.00;98672.22;4364575;32;20079;-72
2022/07/06 00:03:47;;;;;;;9.10;6.28;;;;;;;16.06;100.00;98670.69;4364527;32;20080;-72
2022/07/06 00:06:21;;;;;;;7.68;5.75;;;;;;;15.98;100.00;98668.94;4364625;32;20138;-72
2022/07/06 00:08:50;;;;;;;7.05;6.00;;;;;;;15.94;100.00;98672.91;4364548;32;20125;-72
2022/07/06 00:11:17;;;;;;;6.97;6.28;;;;;;;15.93;100.00;98672.09;4364547;32;20113;-72
2022/07/06 00:13:44;;;;;;;7.95;6.35;;;;;;;15.95;100.00;98671.91;4364490;32;20115;-72
2022/07/06 00:16:11;;;;;;;8.13;6.47;;;;;;;15.93;100.00;98684.50;4364316;32;20094;-72
2022/07/06 00:18:38;;;;;;;6.75;6.05;;;;;;;15.92;100.00;98682.84;4364484;32;20103;-72
2022/07/06 00:21:06;;;;;;;7.00;5.87;;;;;;;15.89;100.00;98688.47;4364475;32;20091;-72
2022/07/06 00:23:33;;;;;;;8.38;6.75;;;;;;;15.89;100.00;98688.47;4364209;32;20091;-72
2022/07/06 00:26:01;;;;;;;9.88;6.87;;;;;;;15.88;100.00;98678.88;4364361;32;20154;-72
2022/07/06 00:28:28;;;;;;;7.37;5.90;;;;;;;15.87;100.00;98674.63;4364509;32;20087;-72
2022/07/06 00:30:55;;;;;;;7.32;5.82;;;;;;;15.85;100.00;98679.25;4364185;32;20454;-72
2022/07/06 00:33:23;;;;;;;7.43;6.05;;;;;;;15.82;100.00;98669.88;4364390;32;20472;-72
2022/07/06 00:35:50;;;;;;;10.13;6.60;;;;;;;15.83;100.00;98670.69;4364290;32;20346;-72
2022/07/06 00:38:17;;;;;;;6.97;6.28;;;;;;;15.82;100.00;98663.72;4364320;32;20103;-72
2022/07/06 00:40:45;;;;;;;7.47;5.80;;;;;;;15.81;100.00;98665.56;4364221;32;20118;-72
2022/07/06 00:43:12;;;;;;;6.78;6.05;;;;;;;15.74;100.00;98670.66;4364304;32;20115;-72
2022/07/06 00:45:40;;;;;;;9.13;6.78;;;;;;;15.69;100.00;98659.81;4364278;32;20126;-72
2022/07/06 00:48:07;;;;;;;7.25;6.47;;;;;;;15.71;100.00;98676.28;4364284;32;20228;-72
2022/07/06 00:50:34;;;;;;;8.40;6.40;;;;;;;15.66;100.00;98656.69;4364130;32;20090;-72
2022/07/06 00:53:04;;;;;;;7.35;6.62;;;;;;;15.61;100.00;98649.31;4364017;32;20166;-72
2022/07/06 00:55:34;;;;;;;6.97;6.28;;;;;;;15.54;100.00;98648.34;4364019;32;20146;-72
2022/07/06 00:58:03;;;;;;;9.65;7.22;;;;;;;15.56;100.00;98628.69;4364112;32;20109;-72
2022/07/06 01:00:31;;;;;;;10.07;6.85;;;;;;;15.50;100.00;98625.91;4364018;32;20114;-72
2022/07/06 01:02:58;;;;;;;9.00;6.85;;;;;;;15.51;100.00;98624.91;4364357;32;20456;-72
2022/07/06 01:05:26;;;;;;;9.18;7.18;;;;;;;15.51;100.00;98615.16;4364066;32;20103;-72
2022/07/06 01:07:54;;;;;;;9.10;6.93;;;;;;;15.46;100.00;98620.16;4363929;32;20121;-72
2022/07/06 01:10:21;;;;;;;13.57;6.50;;;;;;;15.48;100.00;98617.34;4363326;32;20090;-72
2022/07/06 01:12:48;;;;;;;11.98;7.40;;;;;;;15.46;100.00;98616.66;4364042;32;20445;-72
2022/07/06 01:15:22;;;;;;;9.13;6.70;;;;;;;15.45;100.00;98621.13;4364083;32;20111;-72
2022/07/06 01:17:50;;;;;;;7.28;6.50;;;;;;;15.48;100.00;98617.34;4364101;32;20129;-72
2022/07/06 01:20:18;;;;;;;7.90;6.82;;;;;;;15.49;100.00;98619.81;4363963;32;20532;-72
2022/07/06 01:22:48;;;;;;;7.75;6.75;;;;;;;15.47;100.00;98628.87;4363832;32;20366;-72
2022/07/06 01:25:16;;;;;;;11.93;6.72;;;;;;;15.46;100.00;98617.50;4363785;32;20450;-72
2022/07/06 01:27:43;;;;;;;6.55;5.75;;;;;;;15.49;100.00;98622.44;4363769;32;20083;-72
2022/07/06 01:30:13;;;;;;;9.60;6.50;;;;;;;15.49;100.00;98624.25;4363875;32;20083;-72
2022/07/06 01:32:41;;;;;;;8.02;6.28;;;;;;;15.43;100.00;98621.31;4363680;32;20421;-72
2022/07/06 01:35:11;;;;;;;6.90;6.10;;;;;;;15.43;100.00;98628.41;4363589;32;20113;-72
2022/07/06 01:37:38;;;;;;;14.18;6.68;;;;;;;15.42;100.00;98632.84;4363738;32;20487;-72
2022/07/06 01:40:08;;;;;;;8.90;6.68;;;;;;;15.36;100.00;98628.25;4363866;32;20091;-72
2022/07/06 01:42:36;;;;;;;9.68;7.22;;;;;;;15.33;100.00;98641.81;4363656;32;20149;-72
2022/07/06 01:45:04;;;;;;;7.72;6.57;;;;;;;15.30;100.00;98642.16;4363583;32;20596;-72
2022/07/06 01:47:33;;;;;;;8.70;6.80;;;;;;;15.28;100.00;98646.78;4363548;32;20170;-72
2022/07/06 01:50:01;;;;;;;8.88;7.03;;;;;;;15.25;100.00;98647.13;4363486;32;20087;-72
2022/07/06 01:52:29;;;;;;;11.50;7.22;;;;;;;15.24;100.00;98637.56;4363673;32;20095;-72
2022/07/06 01:54:57;;;;;;;10.45;7.82;;;;;;;15.22;100.00;98639.56;4363351;32;20091;-72
2022/07/06 01:57:24;;;;;;;9.60;7.32;;;;;;;15.20;100.00;98652.91;4363644;32;20473;-72
2022/07/06 01:59:52;;;;;;;8.00;7.18;;;;;;;15.18;100.00;98651.44;4363660;32;20472;-72
2022/07/06 02:02:20;;;;;;;10.55;7.15;;;;;;;15.21;100.00;98653.72;4363460;32;20087;-72
2022/07/06 02:04:47;;;;;;;13.27;7.30;;;;;;;15.24;100.00;98653.38;4363195;32;20453;-72
2022/07/06 02:07:14;;;;;;;8.30;7.37;;;;;;;15.16;100.00;98661.34;4363207;32;20527;-72
2022/07/06 02:09:41;;;;;;;9.88;7.57;;;;;;;15.17;100.00;98661.19;4363271;32;20473;-72
2022/07/06 02:12:09;;;;;;;9.73;7.55;;;;;;;15.19;100.00;98664.47;4363093;32;20079;-72
2022/07/06 02:14:36;;;;;;;9.60;7.05;;;;;;;15.20;100.00;98660.00;4363394;32;20126;-72
2022/07/06 02:17:03;;;;;;;8.77;6.78;;;;;;;15.16;100.00;98666.63;4362900;32;20098;-72
2022/07/06 02:19:33;;;;;;;10.50;7.18;;;;;;;15.17;100.00;98670.88;4363417;32;20109;-72
2022/07/06 02:22:00;;;;;;;10.82;7.12;;;;;;;15.20;100.00;98676.66;4364304;32;20091;-72
2022/07/06 02:24:28;;;;;;;10.32;7.00;;;;;;;15.17;100.00;98678.81;4365189;32;20099;-72
2022/07/06 02:26:56;;;;;;;10.45;7.70;;;;;;;15.21;100.00;98680.13;4364989;32;20120;-72
2022/07/06 02:29:25;;;;;;;12.40;7.70;;;;;;;15.20;100.00;98673.19;4365329;32;20091;-72
2022/07/06 02:31:53;;;;;;;13.10;8.00;;;;;;;15.17;100.00;98671.72;4365429;32;20091;-72
2022/07/06 02:34:20;;;;;;;10.45;7.43;;;;;;;15.18;100.00;98669.91;4365008;32;20117;-72
2022/07/06 02:36:48;;;;;;;8.75;7.37;;;;;;;15.19;100.00;98682.13;4365152;32;20445;-72
2022/07/06 02:39:16;;;;;;;9.63;8.05;;;;;;;15.19;100.00;98676.84;4365311;32;20164;-72
2022/07/06 02:41:43;;;;;;;9.32;8.05;;;;;;;15.15;100.00;98671.06;4365169;32;20099;-72
2022/07/06 02:44:10;;;;;;;9.57;8.25;;;;;;;15.13;100.00;98666.97;4365282;32;20111;-72
2022/07/06 02:46:38;;;;;;;11.70;9.00;;;;;;;15.06;100.00;98667.63;4365229;32;20098;-72
2022/07/06 02:49:06;;;;;;;9.57;7.90;;;;;;;15.06;100.00;98666.78;4351487;32;20157;-72
2022/07/06 02:51:33;;;;;;;14.35;8.18;;;;;;;15.05;100.00;98671.25;4365189;32;20087;-72
2022/07/06 02:54:00;;;;;;;13.77;8.23;;;;;;;15.06;100.00;98672.91;4365061;32;20107;-72
2022/07/06 02:56:28;;;;;;;14.82;9.35;;;;;;;15.05;100.00;98670.44;4364905;32;20098;-72
2022/07/06 02:58:56;;;;;;;12.88;8.52;;;;;;;15.03;100.00;98667.13;4364952;32;20493;-72
2022/07/06 03:01:23;;;;;;;10.13;8.85;;;;;;;14.98;100.00;98672.09;4364790;32;20141;-72
2022/07/06 03:03:51;;;;;;;12.52;8.82;;;;;;;14.99;100.00;98682.47;4365077;32;20090;-72
2022/07/06 03:06:18;;;;;;;13.50;10.05;;;;;;;14.94;100.00;98690.06;4364911;32;20103;-72
2022/07/06 03:08:45;;;;;;;11.82;9.55;;;;;;;14.96;100.00;98690.72;4365040;32;20125;-72
2022/07/06 03:11:13;;;;;;;14.98;9.90;;;;;;;14.97;100.00;98687.09;4364774;32;20138;-72
2022/07/06 03:13:41;;;;;;;11.52;8.70;;;;;;;14.96;100.00;98703.06;4364854;32;20459;-72
2022/07/06 03:16:08;;;;;;;12.52;9.80;;;;;;;14.93;100.00;98696.34;4364837;32;20094;-72
2022/07/06 03:18:36;;;;;;;12.68;9.27;;;;;;;14.95;100.00;98693.53;4365015;32;20453;-72
2022/07/06 03:21:03;;;;;;;11.70;9.45;;;;;;;14.92;100.00;98699.97;4364965;32;20166;-72
2022/07/06 03:23:31;;;;;;;12.73;10.15;;;;;;;14.87;100.00;98700.47;4364768;32;20103;-72
2022/07/06 03:25:58;;;;;;;14.65;10.15;;;;;;;14.87;100.00;98704.94;4365028;32;20124;-72
2022/07/06 03:28:27;;;;;;;12.25;10.30;;;;;;;14.93;100.00;98717.44;4364767;32;20083;-72
2022/07/06 03:30:54;;;;;;;16.25;9.82;;;;;;;14.96;100.00;98717.12;4364714;32;20087;-72
2022/07/06 03:33:22;;;;;;;12.68;9.55;;;;;;;14.96;100.00;98717.12;4364387;32;20087;-72
2022/07/06 03:35:49;;;;;;;13.60;9.90;;;;;;;14.97;100.00;98718.75;4364566;32;20442;-72
2022/07/06 03:38:16;;;;;;;13.50;10.10;;;;;;;14.99;100.00;98716.78;4364645;32;20492;-72
2022/07/06 03:40:44;;;;;;;12.68;9.50;;;;;;;15.11;100.00;98711.13;4364822;32;20126;-72
2022/07/06 03:43:11;;;;;;;13.00;9.55;;;;;;;15.15;100.00;98712.47;4364940;32;20107;-72
2022/07/06 03:45:39;;;;;;;16.92;10.13;;;;;;;15.19;100.00;98703.22;4364634;32;20492;-72
2022/07/06 03:48:06;;;;;;;13.70;9.38;;;;;;;15.31;100.00;98717.72;4364475;32;20146;-72
2022/07/06 03:50:33;;;;;;;10.50;8.45;;;;;;;15.37;100.00;98716.22;4364658;32;20414;-72
2022/07/06 03:53:01;;;;;;;11.60;8.93;;;;;;;15.46;100.00;98717.00;4364766;32;20142;-72
2022/07/06 03:55:28;;;;;;;12.43;8.48;;;;;;;15.41;100.00;98702.50;4364644;32;20142;-72
2022/07/06 03:57:56;;;;;;;12.25;8.40;;;;;;;15.52;100.00;98705.75;4364624;32;20457;-72
2022/07/06 04:00:30;;;;;;;11.00;8.63;;;;;;;15.56;100.00;98701.78;4364662;32;20138;-72
2022/07/06 04:02:58;;;;;;;9.55;7.78;;;;;;;15.58;100.00;98702.47;4364713;32;20099;-72
2022/07/06 04:05:25;;;;;;;12.80;8.88;;;;;;;15.63;100.00;98705.41;4364784;32;20114;-72
2022/07/06 04:07:52;;;;;;;11.05;8.48;;;;;;;15.64;100.00;98709.69;4351137;32;20492;-72
2022/07/06 04:10:20;;;;;;;9.52;8.40;;;;;;;15.59;100.00;98696.16;4364702;32;20109;-72
2022/07/06 04:12:47;;;;;;;11.73;7.90;;;;;;;15.64;100.00;98708.84;4351064;32;20128;-72
2022/07/06 04:15:15;;;;;;;10.35;8.00;;;;;;;15.71;100.00;98697.44;4364542;32;20125;-71
2022/07/06 04:17:55;;;;;;;11.68;8.25;;;;;;;15.72;100.00;98700.91;4364429;32;20087;-72
2022/07/06 04:20:24;;;;;;;11.10;7.60;;;;;;;15.83;100.00;98703.19;4364698;32;20095;-72
2022/07/06 04:22:52;;;;;;;10.57;7.45;;;;;;;15.93;100.00;98701.16;4364429;32;20107;-72
2022/07/06 04:25:19;;;;;;;10.82;8.05;;;;;;;15.99;100.00;98694.38;4364565;32;20106;-72
2022/07/06 04:27:47;;;;;;;10.75;7.18;;;;;;;16.04;100.00;98702.59;4364516;32;20095;-72
2022/07/06 04:30:15;;;;;;;10.25;7.40;;;;;;;16.06;100.00;98705.87;4364499;32;20596;-72
2022/07/06 04:32:42;;;;;;;10.52;7.35;;;;;;;16.17;100.00;98711.75;4364519;32;20155;-72
2022/07/06 04:35:10;;;;;;;10.25;7.55;;;;;;;16.29;100.00;98711.19;4364424;32;20122;-72
2022/07/06 04:37:38;;;;;;;12.63;7.30;;;;;;;16.39;100.00;98700.38;4364435;32;20161;-72
2022/07/06 04:40:06;;;;;;;8.80;7.45;;;;;;;16.39;100.00;98710.12;4364212;32;20485;-72
2022/07/06 04:42:33;;;;;;;10.38;7.65;;;;;;;16.44;100.00;98721.00;4364539;32;20161;-72
2022/07/06 04:45:00;;;;;;;9.73;7.60;;;;;;;16.54;100.00;98712.84;4363176;32;20174;-72
2022/07/06 04:47:28;;;;;;;9.40;7.72;;;;;;;16.59;100.00;98713.94;4364162;32;20086;-72
2022/07/06 04:49:55;;;;;;;11.05;7.85;;;;;;;16.61;100.00;98714.59;4364407;32;20091;-72
2022/07/06 04:52:22;;;;;;;10.32;7.32;;;;;;;16.63;100.00;98714.44;4364115;32;20119;-72
2022/07/06 04:54:50;;;;;;;10.30;7.57;;;;;;;16.88;100.00;98706.31;4364357;32;20453;-72
2022/07/06 04:57:17;;;;;;;9.27;7.75;;;;;;;16.77;100.00;98711.00;4364017;32;20454;-72
2022/07/06 04:59:44;;;;;;;10.65;7.85;;;;;;;16.93;100.00;98717.19;4363998;32;20114;-72
2022/07/06 05:02:12;;;;;;;12.13;7.05;;;;;;;17.22;100.00;98715.59;4364285;32;20103;-73
2022/07/06 05:04:39;;;;;;;9.82;7.07;;;;;;;17.16;100.00;98722.44;4364028;32;20161;-72
2022/07/06 05:07:07;;;;;;;9.10;7.50;;;;;;;17.10;100.00;98723.97;4364241;32;20095;-72
2022/07/06 05:09:34;;;;;;;12.85;6.70;;;;;;;17.20;100.00;98731.66;4364145;32;20091;-72
2022/07/06 05:12:02;;;;;;;10.02;6.90;;;;;;;17.31;100.00;98730.38;4364237;32;20501;-72
2022/07/06 05:14:29;;;;;;;9.43;6.82;;;;;;;17.24;100.00;98724.97;4364120;32;20099;-72
2022/07/06 05:16:57;;;;;;;8.63;6.82;;;;;;;17.38;99.90;98725.97;4363798;32;20099;-72
2022/07/06 05:19:24;;;;;;;8.70;6.97;;;;;;;17.43;99.05;98739.53;4364017;32;20136;-72
2022/07/06 05:21:52;;;;;;;8.77;7.20;;;;;;;17.68;97.83;98731.28;4364105;32;20154;-72
2022/07/06 05:24:19;;;;;;;11.10;7.15;;;;;;;17.80;96.64;98739.59;4363906;32;20098;-73
2022/07/06 05:26:47;;;;;;;9.63;6.65;;;;;;;17.74;96.81;98751.75;4364073;32;20163;-72
2022/07/06 05:29:15;;;;;;;10.57;7.93;;;;;;;17.90;95.97;98746.28;4350734;32;20083;-72
2022/07/06 05:31:43;;;;;;;19.23;8.50;;;;;;;17.80;94.98;98761.59;4364141;32;20115;-72
2022/07/06 05:34:10;;;;;;;9.48;6.62;;;;;;;17.93;94.53;98761.00;4364002;32;20106;-72
2022/07/06 05:36:39;;;;;;;11.00;7.10;;;;;;;18.11;93.89;98763.25;4363939;32;20469;-72
2022/07/06 05:39:06;;;;;;;13.07;7.55;;;;;;;18.08;93.49;98771.59;4363612;32;20087;-72
2022/07/06 05:41:33;;;;;;;11.65;7.12;;;;;;;18.15;92.88;98772.47;4363673;32;20477;-72
2022/07/06 05:44:00;;;;;;;12.75;7.57;;;;;;;18.28;91.96;98785.06;4363879;32;20169;-72
2022/07/06 05:46:28;;;;;;;12.60;7.40;;;;;;;18.27;92.14;98791.38;4363881;32;20181;-73
2022/07/06 05:51:41;;;;;;;11.15;7.10;;;;;;;18.36;91.12;98790.25;4363525;32;20449;-73
2022/07/06 05:54:09;;;;;;;11.95;7.75;;;;;;;18.54;90.75;98791.69;4363478;32;20090;-72
2022/07/06 05:56:36;;;;;;;8.85;7.10;;;;;;;18.54;89.56;98805.75;4364273;32;20135;-73
2022/07/06 05:59:04;;;;;;;9.00;6.55;;;;;;;18.55;90.13;98803.94;4365683;32;20186;-72
2022/07/06 06:01:31;;;;;;;12.00;7.10;;;;;;;18.69;89.74;98803.06;4365515;32;20173;-72
2022/07/06 06:04:00;;;;;;;11.02;7.50;;;;;;;18.78;88.22;98814.38;4365495;32;20145;-72
2022/07/06 06:06:27;;;;;;;9.50;7.65;;;;;;;18.77;87.92;98804.75;4365258;32;20444;-73
2022/07/06 06:08:54;;;;;;;10.27;7.05;;;;;;;18.70;88.90;98802.06;4365288;32;20100;-72
2022/07/06 06:11:22;;;;;;;7.55;6.68;;;;;;;18.80;88.00;98815.00;4365105;32;20143;-73
2022/07/06 06:13:49;;;;;;;9.63;6.70;;;;;;;18.98;87.65;98803.97;4365208;32;20563;-73
2022/07/06 06:16:16;;;;;;;8.63;7.00;;;;;;;19.07;86.76;98799.38;4365089;32;20480;-72
2022/07/06 06:18:44;;;;;;;9.70;6.45;;;;;;;19.27;86.68;98805.66;4365420;32;20157;-73
2022/07/06 06:21:12;;;;;;;11.35;7.07;;;;;;;19.34;85.89;98800.41;4365223;32;20092;-73
2022/07/06 06:23:39;;;;;;;9.25;7.70;;;;;;;19.47;84.69;98805.81;4365153;32;20095;-72
2022/07/06 06:26:06;;;;;;;12.88;6.97;;;;;;;19.55;83.70;98799.53;4365321;32;20417;-73
2022/07/06 06:28:33;;;;;;;12.37;6.78;;;;;;;19.86;83.05;98790.31;4365085;32;20162;-72
2022/07/06 06:31:01;;;;;;;7.90;5.90;;;;;;;19.89;81.79;98791.78;4365083;32;20490;-73
2022/07/06 06:33:28;;;;;;;7.90;6.10;;;;;;;19.85;81.34;98796.66;4365161;32;20149;-73
2022/07/06 06:35:55;;;;;;;8.95;6.65;;;;;;;19.83;81.38;98790.72;4365277;32;20087;-72
2022/07/06 06:38:26;;;;;;;9.60;6.12;;;;;;;19.72;81.11;98796.56;4364976;32;20078;-72
2022/07/06 06:40:55;;;;;;;10.48;6.93;;;;;;;19.95;80.89;98797.13;4365038;32;20095;-72
2022/07/06 06:43:22;;;;;;;9.77;6.65;;;;;;;19.96;80.15;98787.31;4365093;32;20146;-72
2022/07/06 06:45:50;;;;;;;10.23;7.32;;;;;;;19.81;80.27;98795.41;4365262;32;20087;-72
2022/07/06 06:48:18;;;;;;;9.82;6.68;;;;;;;19.89;80.95;98807.72;4365010;32;20372;-72
2022/07/06 06:50:46;;;;;;;10.50;6.62;;;;;;;20.10;79.95;98798.81;4365134;32;20121;-73
2022/07/06 06:53:13;;;;;;;11.40;6.35;;;;;;;20.12;79.94;98802.09;4365049;32;20488;-73
2022/07/06 06:55:40;;;;;;;8.18;6.60;;;;;;;20.28;78.36;98798.28;4364983;32;20114;-73
2022/07/06 06:58:08;;;;;;;10.70;7.07;;;;;;;20.33;78.00;98796.69;4364898;32;20425;-73
2022/07/06 07:00:35;;;;;;;12.37;6.80;;;;;;;20.32;77.07;98783.56;4365036;32;20118;-73
2022/07/06 07:03:02;;;;;;;8.30;6.43;;;;;;;20.44;77.48;98791.78;4364822;32;20103;-73
2022/07/06 07:05:29;;;;;;;8.85;6.30;;;;;;;20.67;76.07;98797.59;4364983;32;20110;-73
2022/07/06 07:07:58;;;;;;;8.52;6.32;;;;;;;20.70;75.26;98809.69;4364132;32;20103;-72
2022/07/06 07:10:31;;;;;;;6.78;5.97;;;;;;;20.83;74.75;98801.75;4364899;32;20091;-72
2022/07/06 07:12:59;;;;;;;9.25;6.57;;;;;;;20.91;74.93;98801.53;4351479;32;20103;-73
2022/07/06 07:15:26;;;;;;;10.05;5.57;;;;;;;21.05;73.86;98812.19;4364692;32;20480;-72
2022/07/06 07:17:54;;;;;;;8.48;5.30;;;;;;;21.27;72.56;98816.31;4364635;32;20107;-72
2022/07/06 07:20:22;;;;;;;7.80;5.65;;;;;;;21.39;72.61;98802.34;4364799;32;20095;-72
2022/07/06 07:22:49;;;;;;;7.87;5.15;;;;;;;21.34;71.79;98810.16;4364824;32;20099;-73
2022/07/06 07:25:16;;;;;;;9.00;5.70;;;;;;;21.55;71.29;98804.63;4364666;32;20153;-73
2022/07/06 07:27:43;;;;;;;7.43;4.90;;;;;;;21.57;71.54;98823.06;4351144;32;20134;-73
2022/07/06 07:30:11;;;;;;;7.78;6.22;;;;;;;21.74;71.02;98821.63;4364681;32;20508;-73
2022/07/06 07:32:40;;;;;;;9.27;5.37;;;;;;;21.62;70.68;98828.63;4364702;32;20099;-73
2022/07/06 07:35:08;;;;;;;7.57;6.70;;;;;;;21.87;69.67;98826.09;4364621;32;20520;-73
2022/07/06 07:37:35;;;;;;;6.90;6.03;;;;;;;21.90;69.57;98825.66;4364581;32;20087;-73
2022/07/06 07:40:04;;;;;;;9.57;6.20;;;;;;;22.05;68.88;98846.78;4364634;32;20099;-73
2022/07/06 07:42:32;;;;;;;6.47;5.80;;;;;;;21.99;69.42;98834.28;4364728;32;20146;-73
2022/07/06 07:44:59;;;;;;;7.57;5.22;;;;;;;22.07;69.22;98836.69;4364652;32;20092;-73
2022/07/06 07:47:27;;;;;;;6.37;5.20;;;;;;;22.39;67.52;98844.84;4364473;32;20163;-73
2022/07/06 07:49:54;;;;;;;7.15;5.57;;;;;;;22.51;66.67;98842.31;4364560;32;20201;-73
2022/07/06 07:52:21;;;;;;;7.97;4.97;;;;;;;22.55;66.42;98834.72;4364496;32;20158;-73
2022/07/06 07:54:49;;;;;;;6.68;4.90;;;;;;;22.58;66.53;98831.59;4364643;32;20203;-72
2022/07/06 07:57:36;;;;;;;8.32;4.68;;;;;;;22.87;65.45;98833.69;4364423;32;20071;-72
2022/07/06 08:00:05;;;;;;;5.35;4.78;;;;;;;23.17;63.64;98833.09;4364483;32;20099;-73
2022/07/06 08:02:37;;;;;;;7.15;4.75;;;;;;;22.77;64.31;98852.06;4351781;32;20121;-72
2022/07/06 08:05:05;;;;;;;5.37;4.72;;;;;;;22.85;63.85;98846.44;4364474;32;20083;-73
2022/07/06 08:07:32;;;;;;;8.35;4.68;;;;;;;22.78;64.52;98837.63;4364432;32;20079;-72
2022/07/06 08:09:59;;;;;;;8.35;4.50;;;;;;;23.02;63.03;98841.38;4364429;32;20154;-73
2022/07/06 08:12:27;;;;;;;6.18;4.72;;;;;;;23.00;62.24;98851.47;4364666;32;20153;-72
2022/07/06 08:14:55;;;;;;;9.88;4.35;;;;;;;23.07;62.47;98846.09;4364093;32;20079;-72
2022/07/06 08:17:23;;;;;;;6.55;4.20;;;;;;;23.26;60.54;98849.69;4364404;32;20501;-73
2022/07/06 08:19:50;;;;;;;4.43;3.75;;;;;;;23.30;58.89;98845.56;4364388;32;20095;-73
2022/07/06 08:22:17;;;;;;;7.12;4.50;;;;;;;23.41;57.93;98851.19;4364397;32;20099;-72
2022/07/06 08:24:44;;;;;;;6.30;4.72;;;;;;;23.45;59.10;98845.22;4364362;32;20441;-72
2022/07/06 08:27:12;;;;;;;5.20;4.32;;;;;;;23.75;60.22;98841.84;4364323;32;20091;-73
2022/07/06 08:29:39;;;;;;;5.80;5.10;;;;;;;23.83;58.37;98843.41;4364367;32;20091;-72
2022/07/06 08:32:07;;;;;;;5.55;4.70;;;;;;;23.72;59.54;98842.28;4364320;32;20094;-73
2022/07/06 08:34:44;;;;;;;8.50;4.68;;;;;;;23.97;58.90;98852.13;4364388;32;20095;-72
2022/07/06 08:37:11;;;;;;;6.50;5.00;;;;;;;24.05;58.96;98854.53;4364171;32;20158;-72
2022/07/06 08:39:39;;;;;;;5.25;4.78;;;;;;;24.04;59.00;98855.56;4364346;32;20154;-73
2022/07/06 08:42:07;;;;;;;5.15;4.55;;;;;;;23.95;58.25;98851.56;4364215;32;20099;-73
2022/07/06 08:44:36;;;;;;;7.30;4.70;;;;;;;24.22;58.40;98858.22;4364211;32;20096;-73
2022/07/06 08:47:06;;;;;;;7.62;4.90;;;;;;;24.14;57.00;98861.22;4364315;32;20091;-73
2022/07/06 08:49:34;;;;;;;5.32;4.32;;;;;;;24.03;56.99;98859.31;4364382;32;20095;-73
2022/07/06 08:52:03;;;;;;;8.70;6.07;;;;;;;24.36;57.10;98869.62;4350744;32;20108;-73
2022/07/06 08:54:31;;;;;;;5.62;4.47;;;;;;;24.71;55.73;98857.44;4364139;32;20102;-73
2022/07/06 08:56:59;;;;;;;11.27;4.80;;;;;;;24.68;55.38;98868.62;4350723;32;20212;-73
2022/07/06 08:59:27;;;;;;;5.07;4.15;;;;;;;24.66;54.84;98860.00;4350697;32;20579;-73
2022/07/06 09:01:55;;;;;;;6.78;4.55;;;;;;;24.53;54.00;98859.13;4350892;32;20107;-73
2022/07/06 09:04:23;;;;;;;9.15;4.50;;;;;;;24.49;53.47;98865.16;4350691;32;20087;-73
2022/07/06 09:06:50;;;;;;;5.57;4.40;;;;;;;24.19;55.25;98861.34;4350785;32;20133;-73
2022/07/06 09:09:23;;;;;;;4.53;4.07;;;;;;;24.19;55.07;98856.00;4364063;32;20091;-73
2022/07/06 09:11:50;;;;;;;7.82;4.47;;;;;;;24.24;54.64;98863.41;4350760;32;20126;-73
2022/07/06 09:14:21;;;;;;;4.70;3.90;;;;;;;24.24;53.64;98861.53;4363974;32;20141;-73
2022/07/06 09:17:03;;;;;;;5.90;4.35;;;;;;;24.38;52.94;98861.38;4363693;32;20079;-73
2022/07/06 09:19:31;;;;;;;5.50;4.47;;;;;;;24.64;53.17;98852.19;4363953;32;20151;-73
2022/07/06 09:21:59;;;;;;;6.47;4.30;;;;;;;24.43;53.26;98873.03;4363904;32;20161;-73
2022/07/06 09:24:27;;;;;;;5.50;4.28;;;;;;;24.35;52.99;98856.47;4363858;32;20086;-73
2022/07/06 09:26:55;;;;;;;9.70;4.32;;;;;;;24.49;53.50;98855.25;4363741;32;20095;-73
2022/07/06 09:29:32;;;;;;;5.15;4.00;;;;;;;24.74;51.58;98860.50;4363832;32;20083;-73
2022/07/06 09:32:01;;;;;;;4.32;3.53;;;;;;;24.86;50.96;98857.03;4363131;32;20113;-72
2022/07/06 09:34:42;;;;;;;5.30;4.35;;;;;;;24.90;50.38;98866.28;4363724;32;20111;-73
2022/07/06 09:37:09;;;;;;;8.77;3.87;;;;;;;25.07;50.34;98861.91;4363506;32;20157;-73
2022/07/06 09:39:37;;;;;;;4.95;3.90;;;;;;;25.39;49.17;98861.62;4363753;32;20087;-74
2022/07/06 09:42:07;;;;;;;6.80;3.75;;;;;;;25.29;49.88;98856.84;4363651;32;20149;-73
2022/07/06 09:44:40;;;;;;;5.50;3.85;;;;;;;25.10;49.79;98868.66;4363790;32;20165;-73
2022/07/06 09:47:10;;;;;;;7.15;4.10;;;;;;;25.07;49.55;98848.50;4363585;32;20067;-73
2022/07/06 09:49:38;;;;;;;8.02;4.22;;;;;;;25.59;49.60;98861.28;4363528;32;20123;-73
2022/07/06 09:52:08;;;;;;;5.65;4.00;;;;;;;25.76;48.73;98861.41;4363833;32;20094;-73
2022/07/06 09:54:38;;;;;;;5.30;3.62;;;;;;;25.55;48.92;98862.81;4363632;32;20610;-73
2022/07/06 09:57:07;;;;;;;5.07;3.95;;;;;;;25.49;48.86;98856.50;4363474;32;20071;-73
2022/07/06 09:59:36;;;;;;;4.60;3.97;;;;;;;25.76;47.73;98860.59;4363466;32;20464;-73
2022/07/06 10:02:05;;;;;;;4.32;3.50;;;;;;;25.66;45.73;98861.16;4363394;32;20106;-73
2022/07/06 10:04:33;;;;;;;5.15;3.72;;;;;;;25.43;46.85;98867.34;4363427;32;20110;-73
2022/07/06 10:07:01;;;;;;;3.62;3.12;;;;;;;25.68;45.59;98859.91;4363294;32;20153;-73
2022/07/06 10:09:29;;;;;;;7.57;3.90;;;;;;;25.75;46.06;98875.06;4363166;32;20162;-73
2022/07/06 10:12:02;;;;;;;9.35;3.40;;;;;;;25.92;45.51;98873.31;4363406;32;20437;-73
2022/07/06 10:14:31;;;;;;;3.42;3.12;;;;;;;26.12;44.89;98859.53;4349913;32;20087;-73
2022/07/06 10:17:01;;;;;;;3.30;3.00;;;;;;;25.97;44.12;98862.69;4362948;32;20091;-73
2022/07/06 10:19:30;;;;;;;5.55;3.17;;;;;;;26.24;42.67;98856.84;4363145;32;20155;-73
2022/07/06 10:22:02;;;;;;;3.90;3.55;;;;;;;26.53;42.29;98867.59;4349675;32;20112;-73
2022/07/06 10:24:33;;;;;;;3.65;3.08;;;;;;;26.79;42.41;98852.00;4349866;32;20083;-73
2022/07/06 10:27:01;;;;;;;5.70;3.30;;;;;;;26.69;40.39;98864.19;4363151;32;20071;-74
2022/07/06 10:29:28;;;;;;;3.53;3.22;;;;;;;26.76;40.88;98858.66;4363041;32;20114;-74
2022/07/06 10:31:55;;;;;;;3.80;3.05;;;;;;;26.73;41.70;98856.44;4349659;32;20129;-73
2022/07/06 10:34:23;;;;;;;4.32;3.45;;;;;;;26.50;40.03;98860.03;4349501;32;20087;-73
2022/07/06 10:36:52;;;;;;;9.68;3.47;;;;;;;26.54;40.01;98858.47;4349649;32;20110;-73
2022/07/06 10:42:56;;;;;;;3.45;2.85;;;;;;;26.74;39.09;98861.59;4362841;32;20492;-73
2022/07/06 10:45:47;;;;;;;3.50;3.05;;;;;;;26.77;37.05;98868.38;4348988;32;20091;-73
2022/07/06 10:48:17;;;;;;;6.97;3.17;;;;;;;26.73;37.49;98859.94;4318320;33;20084;-73
2022/07/06 10:50:54;;;;;;;2.42;2.22;;;;;;;26.63;37.37;98867.81;4318568;33;20131;-73
2022/07/06 10:53:25;;;;;;;3.85;2.85;;;;;;;26.78;34.12;98861.91;4318556;33;20088;-73
2022/07/06 10:55:55;;;;;;;4.82;2.80;;;;;;;26.82;35.82;98856.88;4318554;33;20197;-73
2022/07/06 10:58:48;;;;;;;3.47;2.58;;;;;;;27.36;36.48;98854.59;4318361;33;20212;-73
2022/07/06 11:01:16;;;;;;;3.95;2.62;;;;;;;27.42;35.68;98856.31;4318778;33;20120;-73
2022/07/06 11:03:46;;;;;;;4.12;2.72;;;;;;;27.31;34.65;98854.47;4318526;33;20561;-73
2022/07/06 11:06:18;;;;;;;4.03;2.90;;;;;;;27.08;34.72;98871.59;4318551;33;20577;-73
2022/07/06 11:09:02;;;;;;;3.00;2.75;;;;;;;27.18;35.56;98866.37;4318412;33;20083;-73
2022/07/06 11:11:32;;;;;;;6.32;3.20;;;;;;;26.97;35.26;98867.91;4318539;33;20100;-73
2022/07/06 11:14:04;;;;;;;3.40;2.62;;;;;;;27.09;35.57;98859.78;4318424;33;20104;-73
2022/07/06 11:16:36;;;;;;;2.22;2.03;;;;;;;27.14;35.53;98859.84;4318615;33;20547;-73
2022/07/06 11:19:10;;;;;;;2.97;2.67;;;;;;;27.30;33.50;98869.00;4318388;33;20108;-74
2022/07/06 11:21:40;;;;;;;4.10;2.85;;;;;;;27.46;34.23;98859.31;4318515;33;20131;-73
2022/07/06 11:24:10;;;;;;;4.15;2.90;;;;;;;27.56;34.27;98861.38;4318652;33;20120;-73
2022/07/06 11:26:38;;;;;;;5.05;2.83;;;;;;;27.38;33.16;98855.16;4364920;32;20086;-74
2022/07/06 11:29:08;;;;;;;3.87;2.80;;;;;;;27.14;34.11;98859.84;4364734;32;20584;-73
2022/07/06 11:31:37;;;;;;;5.37;3.12;;;;;;;27.46;34.21;98862.00;4364675;32;20138;-73
2022/07/06 11:34:06;;;;;;;6.72;3.25;;;;;;;27.87;30.99;98867.19;4364765;32;20151;-73
2022/07/06 11:36:34;;;;;;;10.80;2.92;;;;;;;27.77;32.56;98874.06;4364938;32;20154;-73
2022/07/06 11:39:09;;;;;;;3.33;2.72;;;;;;;27.57;33.16;98879.94;4364606;32;20071;-73